CWP weather

Campo San Pablo Airstrip
Empalme, Sonora, Mexico

Public forecast

Using degrees Celsius for public forecast. Weather courtesy of forecast.io.

METAR (pilot weather report)

Closest report is General José María Yáñez International Airport, 14.3 nm (26.6 km) W. Retrieved 2019/06/15 19:40 UTC (16 minutes ago):

MMGM 151940Z 20010KT 10SM SKC 31/24 A2982 RMK HZY

TAF (pilot weather forecast)

Closest forecast is General José María Yáñez International Airport, 14.3 nm (26.6 km) W. Retrieved 2019/06/15 18:59 UTC (57 minutes ago):

TAF MMGM 151652Z 1518/1618 23008KT P6SM SCT015 BECMG 1520/1521 23012KT SKC FM160200 00000KT P6SM SKC FM161200 00000KT 6SM HZ BKN015 FM161600 16005KT P6SM SCT015